Time;durP1;ratioP1;P1;durP2;ratioP2;P2;SDS_P1;SDS_P2;PMS_P1;PMS_P2;Temp;Humidity;BMP_temperature;BMP_pressure;BME280_temperature;BME280_humidity;BME280_pressure;Samples;Min_cycle;Max_cycle;Signal;HPM_P1;HPM_P2
2021/06/14 00:00:41;;;;;;;4.70;3.75;;;;;;;12.80;100.00;97078.16;5026226;28;20088;-64
2021/06/14 00:03:09;;;;;;;6.30;3.65;;;;;;;12.85;100.00;97075.94;5023954;28;20447;-63
2021/06/14 00:05:40;;;;;;;6.22;3.83;;;;;;;12.66;100.00;97083.91;5024001;28;20050;-64
2021/06/14 00:08:11;;;;;;;3.90;3.50;;;;;;;12.67;100.00;97080.28;5023064;28;20069;-64
2021/06/14 00:10:39;;;;;;;;;;;;;;;12.51;100.00;97076.41;5018297;28;20446;-62
2021/06/14 00:13:09;;;;;;;3.95;3.53;;;;;;;12.45;100.00;97066.38;5025300;28;19956;-63
2021/06/14 00:15:40;;;;;;;8.83;3.80;;;;;;;12.54;100.00;97070.00;5027386;28;20096;-64
2021/06/14 00:18:09;;;;;;;5.35;3.80;;;;;;;12.47;100.00;97061.78;5024682;28;20326;-64
2021/06/14 00:20:41;;;;;;;8.85;4.35;;;;;;;12.44;100.00;97059.44;5022566;28;20092;-63
2021/06/14 00:23:10;;;;;;;5.78;3.90;;;;;;;12.55;100.00;97061.91;5021331;28;20100;-64
2021/06/14 00:25:40;;;;;;;4.93;3.92;;;;;;;12.77;100.00;97062.59;5023768;28;20058;-62
2021/06/14 00:28:08;;;;;;;5.70;4.28;;;;;;;12.80;100.00;97059.63;5026228;28;20085;-64
2021/06/14 00:30:40;;;;;;;6.32;3.80;;;;;;;12.52;100.00;97067.47;5028723;28;20093;-62
2021/06/14 00:33:09;;;;;;;7.18;3.92;;;;;;;12.27;100.00;97065.44;5022381;28;20072;-63
2021/06/14 00:35:39;;;;;;;4.43;3.60;;;;;;;12.26;100.00;97061.13;5024322;28;20057;-63
2021/06/14 00:38:07;;;;;;;9.93;3.95;;;;;;;12.19;100.00;97070.59;5025393;28;20091;-63
2021/06/14 00:40:37;;;;;;;6.45;4.07;;;;;;;12.09;100.00;97068.78;5026960;28;20133;-64
2021/06/14 00:43:06;;;;;;;5.95;3.95;;;;;;;12.32;100.00;97063.22;5004791;28;20134;-61
2021/06/14 00:45:36;;;;;;;4.97;3.83;;;;;;;12.29;100.00;97068.78;5024250;28;21206;-64
2021/06/14 00:48:06;;;;;;;6.32;4.18;;;;;;;11.95;100.00;97071.00;5021972;28;20533;-64
2021/06/14 00:50:37;;;;;;;6.07;4.20;;;;;;;12.09;100.00;97073.25;5025586;28;20061;-64
2021/06/14 00:53:09;;;;;;;4.25;3.80;;;;;;;12.02;100.00;97072.94;5019981;28;20521;-64
2021/06/14 00:55:41;;;;;;;6.45;4.10;;;;;;;11.87;100.00;97063.75;5020000;28;20068;-64
2021/06/14 00:58:10;;;;;;;5.72;4.20;;;;;;;11.86;100.00;97064.72;5017826;28;20635;-64
2021/06/14 01:00:39;;;;;;;6.50;4.47;;;;;;;11.98;100.00;97062.81;5006578;28;20084;-65
2021/06/14 01:03:08;;;;;;;7.43;4.93;;;;;;;12.03;100.00;97065.84;5020901;28;20084;-64
2021/06/14 01:05:38;;;;;;;7.95;4.53;;;;;;;11.98;100.00;97057.53;5023104;28;20072;-62
2021/06/14 01:08:09;;;;;;;6.38;4.50;;;;;;;11.99;100.00;97054.72;5017314;28;20065;-61
2021/06/14 01:10:39;;;;;;;6.95;4.57;;;;;;;12.03;100.00;97057.94;5022876;28;20517;-63
2021/06/14 01:13:35;;;;;;;7.90;4.50;;;;;;;11.85;100.00;97058.59;5021768;28;20089;-62
2021/06/14 01:16:09;;;;;;;7.57;4.55;;;;;;;11.83;100.00;97059.69;5025746;28;20473;-62
2021/06/14 01:18:42;;;;;;;8.40;4.60;;;;;;;11.77;100.00;97054.97;5020890;28;20069;-63
2021/06/14 01:21:14;;;;;;;6.45;4.63;;;;;;;11.77;100.00;97055.81;5019057;28;20183;-63
2021/06/14 01:23:53;;;;;;;7.22;5.05;;;;;;;11.77;100.00;97061.09;5012911;28;20452;-63
2021/06/14 01:26:23;;;;;;;5.55;4.63;;;;;;;11.84;100.00;97058.75;5021083;28;20529;-62
2021/06/14 01:28:57;;;;;;;6.05;4.45;;;;;;;11.70;100.00;97057.31;5023038;28;20091;-63
2021/06/14 01:31:28;;;;;;;6.68;4.55;;;;;;;11.60;100.00;97059.94;5026126;28;20073;-64
2021/06/14 01:33:57;;;;;;;8.15;4.93;;;;;;;11.61;100.00;97061.59;5021957;28;20572;-62
2021/06/14 01:36:28;;;;;;;6.05;5.25;;;;;;;11.69;100.00;97065.38;5020031;28;20505;-62
2021/06/14 01:38:57;;;;;;;6.60;4.70;;;;;;;11.51;100.00;97055.47;5024935;28;20075;-63
2021/06/14 01:41:27;;;;;;;5.53;4.88;;;;;;;11.49;100.00;97056.56;5019281;28;20068;-61
2021/06/14 01:43:58;;;;;;;9.57;5.57;;;;;;;11.65;100.00;97057.72;5022734;28;20517;-63
2021/06/14 01:46:29;;;;;;;8.52;5.10;;;;;;;11.61;100.00;97051.03;5021546;28;20092;-64
2021/06/14 01:48:58;;;;;;;7.18;4.85;;;;;;;11.56;100.00;97047.13;5026044;28;20643;-63
2021/06/14 01:51:29;;;;;;;10.25;5.25;;;;;;;11.48;100.00;97046.97;5017143;28;20069;-63
2021/06/14 01:54:06;;;;;;;5.72;4.70;;;;;;;11.67;100.00;97039.09;5021791;28;20140;-63
2021/06/14 01:56:37;;;;;;;9.52;4.95;;;;;;;11.82;100.00;97035.06;5018115;28;20459;-63
2021/06/14 01:59:08;;;;;;;5.80;4.95;;;;;;;11.65;100.00;97033.94;5021958;28;20070;-63
2021/06/14 02:01:38;;;;;;;8.68;4.72;;;;;;;11.43;100.00;97034.19;5017468;28;20080;-62
2021/06/14 02:04:07;;;;;;;5.85;4.55;;;;;;;11.42;100.00;97037.78;5020457;28;20484;-61
2021/06/14 02:06:38;;;;;;;6.22;4.72;;;;;;;11.47;100.00;97032.94;5024493;28;20145;-61
2021/06/14 02:09:09;;;;;;;6.00;4.57;;;;;;;11.37;100.00;97019.72;5023211;28;20556;-61
2021/06/14 02:11:41;;;;;;;6.50;4.78;;;;;;;11.28;100.00;97023.16;5019540;28;20079;-63
2021/06/14 02:14:12;;;;;;;8.85;5.65;;;;;;;11.39;100.00;97014.31;5022682;28;20068;-62
2021/06/14 02:16:43;;;;;;;7.68;4.90;;;;;;;11.48;100.00;97010.00;5018082;28;20077;-61
2021/06/14 02:19:13;;;;;;;6.80;4.75;;;;;;;11.64;100.00;97007.66;5013316;28;20085;-63
2021/06/14 02:21:41;;;;;;;7.35;5.05;;;;;;;11.55;100.00;97011.94;5025545;28;20080;-60
2021/06/14 02:24:10;;;;;;;6.70;4.82;;;;;;;11.54;100.00;97014.75;5024229;28;20543;-60
2021/06/14 02:26:40;;;;;;;7.13;5.18;;;;;;;11.54;100.00;97012.94;5022480;28;20509;-63
2021/06/14 02:29:08;;;;;;;6.45;5.00;;;;;;;11.54;100.00;97012.94;5024544;28;20615;-64
2021/06/14 02:31:38;;;;;;;8.68;4.90;;;;;;;11.53;100.00;97013.91;5016708;28;20064;-62
2021/06/14 02:34:08;;;;;;;9.23;5.47;;;;;;;11.56;100.00;97011.00;5024835;28;20755;-62
2021/06/14 02:36:37;;;;;;;9.40;5.38;;;;;;;11.56;100.00;97008.38;5024970;28;20077;-63
2021/06/14 02:39:09;;;;;;;7.40;4.93;;;;;;;11.61;100.00;97003.50;5021893;28;20064;-62
2021/06/14 02:41:38;;;;;;;8.27;5.63;;;;;;;11.85;100.00;97000.47;5020451;28;20075;-61
2021/06/14 02:44:07;;;;;;;9.82;5.28;;;;;;;11.83;100.00;96991.81;5003846;28;20065;-62
2021/06/14 02:46:39;;;;;;;8.60;5.30;;;;;;;11.64;100.00;96997.09;5017276;28;20054;-63
2021/06/14 02:49:09;;;;;;;9.90;5.80;;;;;;;11.76;100.00;96993.34;5019581;28;20540;-63
2021/06/14 02:51:39;;;;;;;6.40;5.07;;;;;;;12.06;100.00;96988.91;5025718;28;20064;-63
2021/06/14 02:54:11;;;;;;;9.07;5.53;;;;;;;11.93;100.00;96996.28;5017313;28;20061;-62
2021/06/14 02:56:41;;;;;;;13.07;5.78;;;;;;;12.08;100.00;96987.81;5023110;28;20072;-61
2021/06/14 02:59:12;;;;;;;13.30;6.05;;;;;;;12.28;100.00;96988.59;5018868;28;20517;-63
2021/06/14 03:01:46;;;;;;;10.80;5.88;;;;;;;12.40;100.00;96983.16;5019820;28;20064;-61
2021/06/14 03:04:15;;;;;;;9.65;5.97;;;;;;;12.23;100.00;96987.38;5014073;28;20081;-63
2021/06/14 03:06:44;;;;;;;8.38;5.90;;;;;;;12.29;100.00;96974.41;5023916;28;20161;-61
2021/06/14 03:09:13;;;;;;;9.93;6.18;;;;;;;12.23;100.00;96976.78;5020848;28;20068;-62
2021/06/14 03:11:44;;;;;;;7.90;5.85;;;;;;;12.28;100.00;96971.88;5018407;28;20065;-63
2021/06/14 03:14:13;;;;;;;8.27;6.18;;;;;;;12.31;100.00;96975.09;5014415;28;20073;-64
2021/06/14 03:16:44;;;;;;;11.57;6.28;;;;;;;12.45;100.00;96975.63;5026331;28;20065;-62
2021/06/14 03:19:13;;;;;;;10.07;6.72;;;;;;;12.35;100.00;96970.34;5024870;28;20081;-63
2021/06/14 03:21:42;;;;;;;9.70;6.53;;;;;;;12.34;100.00;96968.69;5026195;28;20077;-64
2021/06/14 03:24:11;;;;;;;12.45;6.70;;;;;;;12.28;100.00;96972.72;5023396;28;20525;-62
2021/06/14 03:26:41;;;;;;;8.57;5.85;;;;;;;12.28;100.00;96974.53;5025692;28;20462;-63
2021/06/14 03:29:10;;;;;;;10.10;6.43;;;;;;;12.38;100.00;96977.16;5020403;28;20075;-63
2021/06/14 03:31:39;;;;;;;10.80;6.53;;;;;;;12.37;100.00;96973.69;5023554;28;20061;-64
2021/06/14 03:34:09;;;;;;;10.57;6.60;;;;;;;12.56;100.00;96975.47;5024307;28;20482;-62
2021/06/14 03:36:39;;;;;;;9.63;5.90;;;;;;;12.67;100.00;96980.56;5027471;28;20080;-64
2021/06/14 03:39:07;;;;;;;9.48;6.47;;;;;;;12.72;100.00;96980.94;5025036;28;20491;-63
2021/06/14 03:41:42;;;;;;;8.63;5.80;;;;;;;12.50;100.00;96981.31;5022947;28;20084;-64
2021/06/14 03:44:11;;;;;;;8.00;5.78;;;;;;;12.48;100.00;96980.63;5023720;28;20069;-64
2021/06/14 03:46:39;;;;;;;12.18;6.68;;;;;;;12.42;100.00;96982.03;5024821;28;20069;-63
2021/06/14 03:49:10;;;;;;;11.30;6.00;;;;;;;12.40;100.00;96989.28;5020381;28;20084;-64
2021/06/14 03:51:38;;;;;;;11.40;6.37;;;;;;;12.47;100.00;96989.53;5027906;28;20077;-63
2021/06/14 03:54:07;;;;;;;9.90;6.10;;;;;;;13.04;100.00;96979.69;5027047;28;20492;-65
2021/06/14 03:56:36;;;;;;;8.48;5.95;;;;;;;14.99;100.00;96976.22;5022795;28;20061;-63
2021/06/14 03:59:05;;;;;;;9.03;5.53;;;;;;;16.13;100.00;96974.66;5005253;28;20375;-63
2021/06/14 04:01:34;;;;;;;7.20;5.40;;;;;;;17.32;92.10;96965.91;5018821;28;20485;-64
2021/06/14 04:04:19;;;;;;;8.70;5.20;;;;;;;18.35;80.74;96969.22;5027763;28;20089;-63
2021/06/14 04:06:49;;;;;;;7.57;5.03;;;;;;;18.72;74.71;96968.41;5019023;28;20198;-63
2021/06/14 04:09:18;;;;;;;7.25;4.57;;;;;;;19.54;67.89;96973.56;5021819;28;20067;-61
2021/06/14 04:11:46;;;;;;;9.38;4.50;;;;;;;19.46;68.69;96979.03;5022373;28;20075;-60
2021/06/14 04:14:14;;;;;;;7.38;4.82;;;;;;;20.71;60.36;96969.75;5023540;28;20069;-64
2021/06/14 04:16:43;;;;;;;10.38;4.60;;;;;;;19.95;63.18;96974.84;5023436;28;20550;-63
2021/06/14 04:19:11;;;;;;;12.07;5.10;;;;;;;20.36;58.07;96972.34;5027402;28;20085;-64
2021/06/14 04:21:40;;;;;;;10.43;4.80;;;;;;;20.67;58.41;96971.16;5021865;28;20080;-64
2021/06/14 04:24:10;;;;;;;10.10;5.20;;;;;;;20.83;56.25;96969.00;5026195;28;20451;-63
2021/06/14 04:26:39;;;;;;;6.32;4.30;;;;;;;20.56;57.80;96973.34;5020703;28;20076;-65
2021/06/14 04:29:07;;;;;;;6.00;4.53;;;;;;;21.97;51.86;96976.50;5022173;28;20539;-64
2021/06/14 04:31:36;;;;;;;9.02;4.65;;;;;;;20.89;53.08;96975.44;5023100;28;20057;-64
2021/06/14 04:34:05;;;;;;;7.22;4.55;;;;;;;21.87;50.74;96980.63;5027239;28;20091;-63
2021/06/14 04:36:34;;;;;;;8.35;4.88;;;;;;;20.86;55.06;96981.19;5017706;28;21041;-64
2021/06/14 04:39:03;;;;;;;5.97;4.55;;;;;;;22.11;51.22;96973.84;5026366;28;20455;-64
2021/06/14 04:41:33;;;;;;;7.63;4.15;;;;;;;20.88;53.25;96978.31;5022202;28;23690;-63
2021/06/14 04:44:01;;;;;;;9.02;4.82;;;;;;;21.36;52.70;96986.44;5024911;28;20065;-63
2021/06/14 04:46:30;;;;;;;8.10;4.80;;;;;;;21.45;51.74;96974.50;5022727;28;20053;-63
2021/06/14 04:48:58;;;;;;;5.65;4.18;;;;;;;21.77;51.42;96987.19;5022643;28;20071;-64
2021/06/14 04:51:27;;;;;;;6.38;4.88;;;;;;;21.23;53.03;96979.13;5023644;28;20061;-64
2021/06/14 04:53:56;;;;;;;7.70;4.80;;;;;;;21.60;51.27;96977.03;5021458;28;20107;-64
2021/06/14 04:56:24;;;;;;;7.60;5.15;;;;;;;22.73;48.88;96981.53;5025614;28;20438;-63
2021/06/14 04:58:54;;;;;;;6.03;4.80;;;;;;;22.77;47.73;96970.34;5020189;28;20081;-64
2021/06/14 05:01:22;;;;;;;7.70;4.65;;;;;;;23.15;46.52;96978.59;5022690;28;20619;-65
2021/06/14 05:03:51;;;;;;;7.43;4.65;;;;;;;22.83;48.17;96970.34;5020165;28;20155;-64
2021/06/14 05:06:19;;;;;;;6.70;4.75;;;;;;;21.71;50.01;96973.75;5026104;28;20550;-64
2021/06/14 05:08:47;;;;;;;8.40;4.80;;;;;;;21.74;51.12;96973.34;5020726;28;20065;-64
2021/06/14 05:11:16;;;;;;;7.63;5.07;;;;;;;22.66;49.28;96977.19;5018679;28;20069;-64
2021/06/14 05:13:44;;;;;;;7.00;5.03;;;;;;;22.16;51.37;96974.94;5017768;28;20072;-64
2021/06/14 05:16:14;;;;;;;7.38;4.45;;;;;;;21.36;53.66;96976.53;5022398;28;20501;-63
2021/06/14 05:18:42;;;;;;;7.43;5.05;;;;;;;20.70;57.47;96978.81;5018520;28;20121;-62
2021/06/14 05:21:11;;;;;;;7.55;4.72;;;;;;;20.31;60.88;96985.50;5018147;28;20533;-64
2021/06/14 05:23:40;;;;;;;8.63;5.10;;;;;;;20.91;57.60;96984.09;5016885;28;20077;-64
2021/06/14 05:26:08;;;;;;;7.22;4.90;;;;;;;20.80;59.07;96982.81;5020880;28;20077;-64
2021/06/14 05:28:37;;;;;;;7.82;4.60;;;;;;;20.78;59.06;96982.16;5021063;28;20481;-64
2021/06/14 05:31:05;;;;;;;6.80;4.72;;;;;;;19.76;62.91;96990.53;5017980;28;20088;-61
2021/06/14 05:33:35;;;;;;;9.50;5.35;;;;;;;19.62;65.42;96988.69;5019499;28;20279;-63
2021/06/14 05:36:03;;;;;;;11.05;5.05;;;;;;;18.91;69.13;96983.88;5024916;28;20077;-62
2021/06/14 05:38:32;;;;;;;8.20;4.95;;;;;;;20.18;63.92;96986.19;5020265;28;20126;-61
2021/06/14 05:41:00;;;;;;;9.07;4.80;;;;;;;19.60;67.27;96996.88;5023564;28;20111;-64
2021/06/14 05:43:29;;;;;;;7.47;5.32;;;;;;;19.57;67.06;96993.75;5021917;28;20765;-61
2021/06/14 05:45:58;;;;;;;8.60;4.78;;;;;;;18.54;76.03;96992.72;5025921;28;20057;-61
2021/06/14 05:48:26;;;;;;;7.22;4.80;;;;;;;18.97;69.81;96995.69;5019364;28;20061;-61
2021/06/14 05:50:56;;;;;;;8.68;4.85;;;;;;;18.92;73.82;96993.53;5018432;28;20073;-64
2021/06/14 05:53:24;;;;;;;8.25;4.97;;;;;;;19.51;66.82;96995.38;5021355;28;20045;-63
2021/06/14 05:55:53;;;;;;;11.35;5.15;;;;;;;20.26;63.97;96995.94;5021226;28;20065;-62
2021/06/14 05:58:21;;;;;;;9.70;5.03;;;;;;;20.08;65.83;96999.91;5017052;28;20077;-61
2021/06/14 06:00:50;;;;;;;10.52;5.40;;;;;;;19.77;65.62;96997.53;5023031;28;20521;-61
2021/06/14 06:03:19;;;;;;;6.82;4.53;;;;;;;20.45;61.53;96995.28;5020204;28;20104;-64
2021/06/14 06:05:47;;;;;;;8.00;5.00;;;;;;;19.87;65.81;96992.69;5022311;28;20069;-63
2021/06/14 06:08:16;;;;;;;12.43;5.30;;;;;;;19.29;69.14;96991.78;5025532;28;20068;-63
2021/06/14 06:10:45;;;;;;;8.25;4.90;;;;;;;18.83;73.40;96994.66;5020500;28;20061;-64
2021/06/14 06:13:14;;;;;;;11.05;5.88;;;;;;;18.15;81.86;96996.41;5025125;28;20077;-64
2021/06/14 06:15:42;;;;;;;8.43;5.05;;;;;;;18.44;82.12;97001.03;5024437;28;20077;-64
2021/06/14 06:18:12;;;;;;;10.07;5.50;;;;;;;18.43;83.93;96996.66;5015841;28;20061;-63
2021/06/14 06:20:40;;;;;;;10.57;5.57;;;;;;;18.62;75.82;96995.34;5021714;28;20061;-64
2021/06/14 06:23:09;;;;;;;8.57;5.68;;;;;;;18.38;82.49;96984.91;5022279;28;20732;-62
2021/06/14 06:25:38;;;;;;;8.05;5.60;;;;;;;18.13;82.76;96992.25;5018805;28;20076;-64
2021/06/14 06:28:07;;;;;;;8.13;5.30;;;;;;;18.40;80.91;96986.34;5022032;28;20077;-64
2021/06/14 06:30:36;;;;;;;8.57;5.50;;;;;;;18.09;85.51;96986.44;5024727;28;20107;-63
2021/06/14 06:33:05;;;;;;;10.68;5.35;;;;;;;18.62;81.92;96987.31;5022291;28;20061;-64
2021/06/14 06:35:34;;;;;;;12.38;5.25;;;;;;;18.69;84.21;96984.75;5017897;28;20081;-62
2021/06/14 06:38:03;;;;;;;7.32;5.07;;;;;;;18.84;79.89;96985.63;5020829;28;20072;-64
2021/06/14 06:40:31;;;;;;;7.70;5.22;;;;;;;18.75;79.95;96981.38;5020816;28;20524;-63
2021/06/14 06:43:01;;;;;;;10.20;5.25;;;;;;;18.54;81.63;96984.72;5019778;28;20068;-64
2021/06/14 06:45:30;;;;;;;9.20;5.40;;;;;;;18.78;79.95;96981.00;5019133;28;20072;-64
2021/06/14 06:47:58;;;;;;;7.45;5.30;;;;;;;18.97;78.31;96976.97;5013681;28;20510;-64
2021/06/14 06:50:27;;;;;;;13.38;6.30;;;;;;;18.82;79.32;96976.13;5024225;28;20540;-64
2021/06/14 06:52:56;;;;;;;7.70;5.40;;;;;;;19.17;77.98;96974.56;5023094;28;20524;-64
2021/06/14 06:55:24;;;;;;;7.57;4.88;;;;;;;18.74;79.93;96969.03;5022646;28;20077;-64
2021/06/14 06:57:52;;;;;;;10.57;5.45;;;;;;;19.12;76.64;96967.09;5026132;28;20077;-64
2021/06/14 07:00:23;;;;;;;11.18;5.57;;;;;;;19.48;77.31;96963.63;5026459;28;20077;-64
2021/06/14 07:02:52;;;;;;;10.45;5.50;;;;;;;18.86;75.56;96972.91;5018109;28;20061;-64
2021/06/14 07:05:36;;;;;;;9.63;4.97;;;;;;;18.74;74.31;96972.53;5025886;28;20076;-64
2021/06/14 07:08:05;;;;;;;10.18;5.32;;;;;;;19.12;75.02;96971.59;5021143;28;20065;-63
2021/06/14 07:10:34;;;;;;;8.73;5.30;;;;;;;19.07;75.97;96976.69;5019954;28;20061;-64
2021/06/14 07:13:02;;;;;;;8.70;4.85;;;;;;;19.26;76.18;96972.59;5022245;28;20088;-62
2021/06/14 07:15:34;;;;;;;8.50;5.40;;;;;;;19.28;75.92;96978.59;5025109;28;20241;-63
2021/06/14 07:18:03;;;;;;;9.93;4.80;;;;;;;19.80;73.60;96972.25;5026628;28;20076;-61
2021/06/14 07:20:31;;;;;;;7.60;5.28;;;;;;;19.84;69.50;96976.19;5024543;28;20080;-61
2021/06/14 07:23:00;;;;;;;7.95;4.82;;;;;;;19.39;72.38;96972.78;5023639;28;20068;-63
2021/06/14 07:25:29;;;;;;;7.97;5.30;;;;;;;19.70;71.20;96971.72;5026616;28;20037;-63
2021/06/14 07:27:57;;;;;;;11.73;5.15;;;;;;;19.89;70.06;96966.56;5025676;28;20077;-64
2021/06/14 07:30:34;;;;;;;8.52;4.63;;;;;;;19.91;69.88;96958.34;5018106;28;21267;-63
2021/06/14 07:33:04;;;;;;;9.63;4.85;;;;;;;19.83;67.85;96966.50;5021270;28;20065;-64
2021/06/14 07:35:35;;;;;;;9.35;4.93;;;;;;;20.19;68.81;96955.72;5021672;28;20068;-64
2021/06/14 07:38:04;;;;;;;6.20;4.60;;;;;;;20.21;67.53;96959.03;5018684;28;20080;-63
2021/06/14 07:40:33;;;;;;;8.68;4.70;;;;;;;20.02;67.36;96963.19;5024044;28;20064;-63
2021/06/14 07:43:01;;;;;;;9.38;4.80;;;;;;;20.41;66.12;96961.06;5026349;28;20077;-63
2021/06/14 07:45:30;;;;;;;10.20;5.50;;;;;;;19.74;65.65;96965.78;5022768;28;20458;-63
2021/06/14 07:47:59;;;;;;;10.95;5.00;;;;;;;19.96;65.77;96963.97;5022600;28;20077;-64
2021/06/14 07:50:28;;;;;;;9.32;4.90;;;;;;;20.44;63.03;96957.97;5022242;28;20065;-63
2021/06/14 07:52:57;;;;;;;8.00;4.57;;;;;;;20.11;63.85;96961.22;5027292;28;20072;-62
2021/06/14 07:55:26;;;;;;;10.02;4.25;;;;;;;20.59;60.88;96958.75;5022214;28;23826;-63
2021/06/14 07:57:54;;;;;;;7.35;4.32;;;;;;;21.08;59.29;96955.13;5022524;28;20069;-63
2021/06/14 08:00:23;;;;;;;8.13;4.45;;;;;;;21.02;58.23;96956.72;5020410;28;20085;-63
2021/06/14 08:03:10;;;;;;;10.23;4.13;;;;;;;21.09;57.43;96962.13;5025352;28;20076;-64
2021/06/14 08:05:39;;;;;;;9.98;4.10;;;;;;;20.69;59.12;96942.31;5022105;28;20475;-64
2021/06/14 08:08:15;;;;;;;9.70;4.60;;;;;;;21.31;57.35;96961.00;5025936;28;20076;-63
2021/06/14 08:10:44;;;;;;;8.25;3.55;;;;;;;21.08;55.54;96952.44;5020674;28;20732;-63
2021/06/14 08:13:13;;;;;;;7.78;4.43;;;;;;;21.10;53.61;96947.72;5026101;28;20081;-64
2021/06/14 08:15:41;;;;;;;8.05;4.03;;;;;;;20.79;54.32;96950.84;5025434;28;20076;-63
2021/06/14 08:18:23;;;;;;;7.28;4.20;;;;;;;21.64;54.27;96946.06;5024643;28;20061;-64
2021/06/14 08:21:06;;;;;;;8.63;4.10;;;;;;;21.36;53.66;96944.31;5018144;28;20076;-63
2021/06/14 08:26:25;;;;;;;7.57;4.43;;;;;;;20.99;55.04;96941.06;5018872;28;20088;-63
2021/06/14 08:28:56;;;;;;;8.52;4.07;;;;;;;21.24;54.28;96940.56;5029696;28;20069;-62
2021/06/14 08:31:25;;;;;;;9.73;4.05;;;;;;;21.27;55.52;96929.44;5021947;28;20444;-62
2021/06/14 08:33:55;;;;;;;6.15;3.88;;;;;;;21.21;55.21;96932.91;5023135;28;20104;-64
2021/06/14 08:36:24;;;;;;;6.88;3.53;;;;;;;21.20;52.05;96934.75;5022704;28;20084;-63
2021/06/14 08:38:52;;;;;;;6.18;3.70;;;;;;;21.18;51.42;96938.66;5025714;28;20077;-63
2021/06/14 08:41:22;;;;;;;8.65;3.92;;;;;;;21.49;52.07;96939.00;5021217;28;23742;-63
2021/06/14 08:43:52;;;;;;;7.03;3.47;;;;;;;21.16;52.91;96928.13;5023263;28;20065;-64
2021/06/14 08:46:20;;;;;;;9.35;3.85;;;;;;;21.65;51.84;96932.47;5022087;28;20077;-62
2021/06/14 08:48:50;;;;;;;8.32;4.15;;;;;;;21.93;52.45;96926.09;5021423;28;20085;-62
2021/06/14 08:51:20;;;;;;;6.53;3.70;;;;;;;22.57;50.85;96921.97;5020226;28;20080;-62
2021/06/14 08:53:51;;;;;;;8.85;4.28;;;;;;;22.10;49.47;96919.31;5023573;28;20498;-64
2021/06/14 08:56:21;;;;;;;9.98;4.03;;;;;;;22.09;50.27;96914.13;5018561;28;20100;-64
2021/06/14 08:58:50;;;;;;;9.13;4.32;;;;;;;21.59;51.61;96917.16;5026486;28;20066;-63
2021/06/14 09:01:19;;;;;;;6.90;4.13;;;;;;;21.93;51.31;96912.69;5019062;28;20084;-63
2021/06/14 09:03:48;;;;;;;6.63;4.10;;;;;;;22.43;49.89;96913.09;5027258;28;20526;-64
2021/06/14 09:06:16;;;;;;;8.25;3.75;;;;;;;21.96;49.85;96918.47;5020824;28;20064;-64
2021/06/14 09:08:58;;;;;;;9.30;3.88;;;;;;;22.24;49.60;96918.31;5022447;28;20060;-62
2021/06/14 09:11:27;;;;;;;7.93;4.30;;;;;;;22.31;49.22;96906.72;5025389;28;20071;-63
2021/06/14 09:13:56;;;;;;;6.25;3.83;;;;;;;21.94;49.74;96917.00;5018691;28;20075;-63
2021/06/14 09:16:25;;;;;;;12.18;4.30;;;;;;;22.21;49.04;96910.66;4999896;28;20069;-62
2021/06/14 09:18:55;;;;;;;7.32;4.05;;;;;;;22.34;47.33;96909.00;5024880;28;20088;-62
2021/06/14 09:21:29;;;;;;;6.38;3.83;;;;;;;22.51;46.45;96910.22;5020442;28;20065;-62
2021/06/14 09:24:01;;;;;;;6.82;4.10;;;;;;;22.52;48.06;96909.19;5013435;28;20073;-62
2021/06/14 09:26:32;;;;;;;7.00;3.95;;;;;;;23.37;45.80;96903.78;5022303;28;20073;-62
2021/06/14 09:29:03;;;;;;;8.18;4.20;;;;;;;23.14;46.56;96907.81;5018139;28;20069;-61
2021/06/14 09:31:39;;;;;;;6.65;4.07;;;;;;;23.13;46.20;96897.25;5022625;28;20054;-62
2021/06/14 09:34:08;;;;;;;5.82;3.70;;;;;;;22.54;46.71;96890.16;5019496;28;20438;-62
2021/06/14 09:36:36;;;;;;;9.93;4.05;;;;;;;22.58;47.02;96900.28;5008412;28;20073;-62
2021/06/14 09:39:10;;;;;;;7.30;3.80;;;;;;;22.70;45.85;96905.84;5004367;28;20076;-62
2021/06/14 09:41:40;;;;;;;6.22;3.80;;;;;;;23.00;47.19;96898.13;5015154;28;20738;-62
2021/06/14 09:44:08;;;;;;;7.45;4.05;;;;;;;23.04;48.00;96907.44;4999411;28;20076;-61
2021/06/14 09:46:37;;;;;;;6.85;3.70;;;;;;;22.82;48.04;96901.47;5008227;28;20057;-62
2021/06/14 09:49:06;;;;;;;7.00;3.80;;;;;;;22.70;47.46;96898.59;5023144;28;20448;-62
2021/06/14 09:51:36;;;;;;;7.43;3.30;;;;;;;23.21;44.25;96900.53;5005213;28;20061;-62
2021/06/14 09:54:05;;;;;;;5.97;3.22;;;;;;;23.20;44.48;96895.38;5005588;28;20432;-61
2021/06/14 09:56:36;;;;;;;6.05;3.60;;;;;;;23.51;45.16;96899.16;5024415;28;20061;-62
2021/06/14 09:59:07;;;;;;;9.52;3.38;;;;;;;22.90;44.22;96895.84;5002863;28;20080;-61
2021/06/14 10:01:38;;;;;;;5.70;3.42;;;;;;;23.63;42.67;96892.84;5021648;28;20061;-62
2021/06/14 10:04:10;;;;;;;5.55;3.38;;;;;;;23.21;43.43;96888.94;5017994;28;20521;-61
2021/06/14 10:06:38;;;;;;;;;;;;;;;23.37;43.52;96893.03;5023126;28;20060;-62
2021/06/14 10:09:10;;;;;;;6.82;3.50;;;;;;;23.72;40.67;96898.03;5021020;28;19957;-62
2021/06/14 10:11:43;;;;;;;5.07;3.35;;;;;;;23.74;40.28;96887.84;5021272;28;20073;-60
2021/06/14 10:14:12;;;;;;;6.25;3.40;;;;;;;24.11;42.12;96875.34;5003332;28;20074;-61
2021/06/14 10:16:42;;;;;;;5.53;3.50;;;;;;;23.89;43.68;96877.59;5021226;28;20106;-62
2021/06/14 10:19:12;;;;;;;8.70;3.97;;;;;;;24.06;42.47;96875.19;5013873;28;20081;-60
2021/06/14 10:21:42;;;;;;;5.80;3.60;;;;;;;23.63;41.69;96881.25;5008921;28;20061;-62
2021/06/14 10:24:12;;;;;;;5.40;3.20;;;;;;;23.61;41.78;96873.41;5026059;28;20065;-62
2021/06/14 10:26:44;;;;;;;5.40;3.28;;;;;;;22.96;41.30;96867.31;5024231;28;20049;-62
2021/06/14 10:29:14;;;;;;;7.22;3.55;;;;;;;23.82;42.35;96857.97;5028105;28;20068;-60
2021/06/14 10:31:45;;;;;;;9.65;3.67;;;;;;;23.88;43.16;96860.63;5024264;28;20501;-62
2021/06/14 10:34:14;;;;;;;7.07;3.28;;;;;;;23.61;43.01;96848.34;5019033;28;20297;-62
2021/06/14 10:36:45;;;;;;;6.47;3.10;;;;;;;23.98;41.93;96851.19;5028912;28;20551;-62
2021/06/14 10:39:14;;;;;;;5.40;3.03;;;;;;;24.02;42.16;96847.00;5023942;28;20061;-61
2021/06/14 10:41:45;;;;;;;3.57;2.70;;;;;;;24.12;42.88;96850.03;5025739;28;20061;-62
2021/06/14 10:44:14;;;;;;;6.95;2.80;;;;;;;24.00;39.37;96852.63;5026878;28;20480;-62
2021/06/14 10:46:45;;;;;;;5.13;3.25;;;;;;;24.36;40.48;96851.91;5005475;28;20076;-62
2021/06/14 10:49:14;;;;;;;5.63;2.95;;;;;;;23.58;41.70;96854.16;5026814;28;20085;-61
2021/06/14 10:51:45;;;;;;;5.88;3.40;;;;;;;24.50;40.26;96854.47;5027781;28;20080;-61
2021/06/14 10:54:15;;;;;;;8.82;3.50;;;;;;;24.22;40.42;96852.25;5027450;28;20076;-62
2021/06/14 10:56:46;;;;;;;6.03;3.05;;;;;;;24.56;38.89;96840.13;5026020;28;20076;-62
2021/06/14 10:59:15;;;;;;;5.75;3.10;;;;;;;24.46;39.00;96837.94;5024981;28;20069;-62
2021/06/14 11:01:45;;;;;;;5.40;2.72;;;;;;;24.43;37.41;96837.56;5006301;28;20076;-62
2021/06/14 11:04:25;;;;;;;5.50;3.30;;;;;;;24.32;39.95;96833.69;5023530;28;20089;-62
2021/06/14 11:06:55;;;;;;;7.80;3.50;;;;;;;23.81;41.61;96829.38;5026178;28;20077;-62
2021/06/14 11:09:24;;;;;;;5.70;3.05;;;;;;;24.80;39.96;96827.59;5020334;28;20498;-62
2021/06/14 11:11:56;;;;;;;6.80;3.30;;;;;;;25.29;39.68;96820.34;5020856;28;20473;-62
2021/06/14 11:14:33;;;;;;;12.68;3.45;;;;;;;24.62;38.39;96821.16;5026183;28;20065;-61
2021/06/14 11:17:15;;;;;;;4.47;2.95;;;;;;;25.17;40.39;96824.91;5017752;28;20061;-61
2021/06/14 11:19:45;;;;;;;7.28;3.58;;;;;;;25.05;39.60;96816.69;5027462;28;20517;-62
2021/06/14 11:22:13;;;;;;;6.67;3.23;;;;;;;24.66;38.85;96804.53;5020625;28;20065;-61
2021/06/14 11:24:43;;;;;;;6.93;2.97;;;;;;;24.14;38.80;96802.97;5007432;28;21070;-61
2021/06/14 11:27:13;;;;;;;6.22;3.08;;;;;;;24.25;37.94;96797.91;5025743;28;20088;-62
2021/06/14 11:29:49;;;;;;;6.45;2.92;;;;;;;24.55;37.29;96790.75;5026087;28;20064;-63
2021/06/14 11:32:20;;;;;;;7.65;2.80;;;;;;;24.45;36.59;96781.53;5007038;28;20057;-62
2021/06/14 11:34:53;;;;;;;6.85;2.85;;;;;;;24.58;39.01;96781.41;5024388;28;20080;-61
2021/06/14 11:37:23;;;;;;;3.88;2.85;;;;;;;24.56;37.12;96788.88;5018428;28;20065;-61
2021/06/14 11:40:01;;;;;;;4.87;2.77;;;;;;;24.70;37.26;96779.56;5029621;28;20077;-60
2021/06/14 11:42:43;;;;;;;9.13;3.38;;;;;;;25.05;38.13;96773.53;5023908;28;20065;-62
2021/06/14 11:45:23;;;;;;;6.07;3.17;;;;;;;24.92;39.07;96771.03;5026304;28;20078;-60